sensor_id;sensor_type;location;lat;lon;timestamp;P1;durP1;ratioP1;P2;durP2;ratioP2
80163;SDS011;70071;55.130;61.268;2023-07-02T00:00:16;2.28;;;1.60;;
80163;SDS011;70071;55.130;61.268;2023-07-02T00:02:42;4.57;;;2.03;;
80163;SDS011;70071;55.130;61.268;2023-07-02T00:05:08;4.55;;;1.85;;
80163;SDS011;70071;55.130;61.268;2023-07-02T00:07:35;4.85;;;1.48;;
80163;SDS011;70071;55.130;61.268;2023-07-02T00:10:02;2.88;;;1.65;;
80163;SDS011;70071;55.130;61.268;2023-07-02T00:12:30;5.32;;;2.08;;
80163;SDS011;70071;55.130;61.268;2023-07-02T00:14:57;3.10;;;1.63;;
80163;SDS011;70071;55.130;61.268;2023-07-02T00:19:50;2.83;;;1.80;;
80163;SDS011;70071;55.130;61.268;2023-07-02T00:22:17;6.32;;;1.95;;
80163;SDS011;70071;55.130;61.268;2023-07-02T00:24:44;3.38;;;1.67;;
80163;SDS011;70071;55.130;61.268;2023-07-02T00:27:11;4.40;;;1.70;;
80163;SDS011;70071;55.130;61.268;2023-07-02T00:29:37;4.82;;;1.70;;
80163;SDS011;70071;55.130;61.268;2023-07-02T00:32:04;4.57;;;1.80;;
80163;SDS011;70071;55.130;61.268;2023-07-02T00:34:31;2.53;;;1.75;;
80163;SDS011;70071;55.130;61.268;2023-07-02T00:36:57;2.60;;;1.45;;
80163;SDS011;70071;55.130;61.268;2023-07-02T00:39:25;3.95;;;2.00;;
80163;SDS011;70071;55.130;61.268;2023-07-02T00:41:53;2.85;;;1.70;;
80163;SDS011;70071;55.130;61.268;2023-07-02T00:44:20;3.72;;;1.67;;
80163;SDS011;70071;55.130;61.268;2023-07-02T00:46:47;2.45;;;1.75;;
80163;SDS011;70071;55.130;61.268;2023-07-02T00:51:41;4.07;;;1.80;;
80163;SDS011;70071;55.130;61.268;2023-07-02T00:54:08;3.42;;;1.77;;
80163;SDS011;70071;55.130;61.268;2023-07-02T00:56:34;4.38;;;1.80;;
80163;SDS011;70071;55.130;61.268;2023-07-02T00:59:00;2.50;;;1.90;;
80163;SDS011;70071;55.130;61.268;2023-07-02T01:01:27;3.15;;;1.52;;
80163;SDS011;70071;55.130;61.268;2023-07-02T01:03:59;2.25;;;1.52;;
80163;SDS011;70071;55.130;61.268;2023-07-02T01:06:35;3.42;;;1.77;;
80163;SDS011;70071;55.130;61.268;2023-07-02T01:09:07;5.65;;;2.20;;
80163;SDS011;70071;55.130;61.268;2023-07-02T14:13:58;11.75;;;5.38;;
80163;SDS011;70071;55.130;61.268;2023-07-02T14:16:27;12.40;;;4.60;;
80163;SDS011;70071;55.130;61.268;2023-07-02T14:18:54;10.48;;;5.00;;
80163;SDS011;70071;55.130;61.268;2023-07-02T14:21:20;9.95;;;4.82;;
80163;SDS011;70071;55.130;61.268;2023-07-02T14:24:26;16.23;;;7.50;;
80163;SDS011;70071;55.130;61.268;2023-07-02T14:27:16;17.15;;;11.27;;
80163;SDS011;70071;55.130;61.268;2023-07-02T14:29:53;15.90;;;10.90;;
80163;SDS011;70071;55.130;61.268;2023-07-02T14:32:21;21.55;;;13.65;;
80163;SDS011;70071;55.130;61.268;2023-07-02T14:34:47;24.83;;;15.90;;
80163;SDS011;70071;55.130;61.268;2023-07-02T14:37:13;16.67;;;11.88;;
80163;SDS011;70071;55.130;61.268;2023-07-02T14:39:40;18.58;;;10.02;;
80163;SDS011;70071;55.130;61.268;2023-07-02T14:42:05;19.13;;;12.65;;
80163;SDS011;70071;55.130;61.268;2023-07-02T14:44:32;20.15;;;13.48;;
80163;SDS011;70071;55.130;61.268;2023-07-02T14:47:01;18.30;;;12.82;;
80163;SDS011;70071;55.130;61.268;2023-07-02T14:49:27;21.50;;;12.40;;
80163;SDS011;70071;55.130;61.268;2023-07-02T14:51:53;17.92;;;10.45;;
80163;SDS011;70071;55.130;61.268;2023-07-02T14:54:19;13.45;;;9.25;;
80163;SDS011;70071;55.130;61.268;2023-07-02T14:56:50;17.38;;;9.02;;
80163;SDS011;70071;55.130;61.268;2023-07-02T14:59:15;16.77;;;10.77;;
80163;SDS011;70071;55.130;61.268;2023-07-02T15:01:42;17.30;;;10.27;;
80163;SDS011;70071;55.130;61.268;2023-07-02T15:04:09;16.83;;;10.85;;
80163;SDS011;70071;55.130;61.268;2023-07-02T15:06:35;21.40;;;11.40;;
80163;SDS011;70071;55.130;61.268;2023-07-02T15:09:01;22.73;;;12.43;;
80163;SDS011;70071;55.130;61.268;2023-07-02T15:11:29;20.23;;;12.13;;
80163;SDS011;70071;55.130;61.268;2023-07-02T15:13:56;23.70;;;12.93;;
80163;SDS011;70071;55.130;61.268;2023-07-02T15:16:24;17.42;;;10.00;;
80163;SDS011;70071;55.130;61.268;2023-07-02T15:18:51;21.25;;;14.18;;
80163;SDS011;70071;55.130;61.268;2023-07-02T15:21:17;27.10;;;16.60;;
80163;SDS011;70071;55.130;61.268;2023-07-02T15:23:44;21.25;;;14.02;;
80163;SDS011;70071;55.130;61.268;2023-07-02T15:28:35;12.95;;;8.25;;
80163;SDS011;70071;55.130;61.268;2023-07-02T15:31:03;13.95;;;7.35;;
80163;SDS011;70071;55.130;61.268;2023-07-02T15:33:32;10.82;;;6.93;;
80163;SDS011;70071;55.130;61.268;2023-07-02T15:35:59;15.30;;;7.28;;
80163;SDS011;70071;55.130;61.268;2023-07-02T15:38:26;13.10;;;6.05;;
80163;SDS011;70071;55.130;61.268;2023-07-02T15:41:03;12.35;;;4.82;;
80163;SDS011;70071;55.130;61.268;2023-07-02T15:43:34;12.80;;;7.22;;
80163;SDS011;70071;55.130;61.268;2023-07-02T15:46:00;15.25;;;8.65;;
80163;SDS011;70071;55.130;61.268;2023-07-02T15:48:27;14.95;;;7.35;;
80163;SDS011;70071;55.130;61.268;2023-07-02T15:50:53;16.63;;;8.48;;
80163;SDS011;70071;55.130;61.268;2023-07-02T15:53:19;16.20;;;8.32;;
80163;SDS011;70071;55.130;61.268;2023-07-02T15:55:46;16.42;;;8.50;;
80163;SDS011;70071;55.130;61.268;2023-07-02T15:58:12;12.40;;;7.13;;
80163;SDS011;70071;55.130;61.268;2023-07-02T16:01:09;15.73;;;6.97;;
80163;SDS011;70071;55.130;61.268;2023-07-02T16:03:39;15.30;;;7.55;;
80163;SDS011;70071;55.130;61.268;2023-07-02T16:06:06;14.38;;;8.45;;
80163;SDS011;70071;55.130;61.268;2023-07-02T16:08:33;21.40;;;9.20;;
80163;SDS011;70071;55.130;61.268;2023-07-02T16:10:59;15.95;;;9.10;;
80163;SDS011;70071;55.130;61.268;2023-07-02T16:13:26;20.85;;;8.27;;
80163;SDS011;70071;55.130;61.268;2023-07-02T16:15:54;15.90;;;7.18;;
80163;SDS011;70071;55.130;61.268;2023-07-02T16:18:20;17.98;;;6.85;;
80163;SDS011;70071;55.130;61.268;2023-07-02T16:20:54;13.20;;;6.45;;
80163;SDS011;70071;55.130;61.268;2023-07-02T16:23:25;10.38;;;5.93;;
80163;SDS011;70071;55.130;61.268;2023-07-02T16:25:56;13.75;;;5.63;;
80163;SDS011;70071;55.130;61.268;2023-07-02T16:28:23;16.60;;;6.90;;
80163;SDS011;70071;55.130;61.268;2023-07-02T16:30:50;12.20;;;6.88;;
80163;SDS011;70071;55.130;61.268;2023-07-02T16:33:16;17.58;;;7.10;;
80163;SDS011;70071;55.130;61.268;2023-07-02T16:35:44;10.73;;;6.22;;
80163;SDS011;70071;55.130;61.268;2023-07-02T16:38:11;11.00;;;6.82;;
80163;SDS011;70071;55.130;61.268;2023-07-02T16:40:37;10.45;;;6.22;;
80163;SDS011;70071;55.130;61.268;2023-07-02T16:43:02;10.50;;;5.22;;
80163;SDS011;70071;55.130;61.268;2023-07-02T16:45:30;13.27;;;6.00;;
80163;SDS011;70071;55.130;61.268;2023-07-02T16:47:56;12.70;;;4.90;;
80163;SDS011;70071;55.130;61.268;2023-07-02T16:50:27;11.02;;;5.72;;
80163;SDS011;70071;55.130;61.268;2023-07-02T16:52:53;10.85;;;5.28;;
80163;SDS011;70071;55.130;61.268;2023-07-02T16:57:45;6.60;;;4.13;;
80163;SDS011;70071;55.130;61.268;2023-07-02T17:00:12;10.90;;;6.22;;
80163;SDS011;70071;55.130;61.268;2023-07-02T17:02:38;15.40;;;6.82;;
80163;SDS011;70071;55.130;61.268;2023-07-02T17:05:07;12.65;;;5.80;;
80163;SDS011;70071;55.130;61.268;2023-07-02T17:07:33;14.60;;;6.50;;
80163;SDS011;70071;55.130;61.268;2023-07-02T17:09:59;10.88;;;5.47;;
80163;SDS011;70071;55.130;61.268;2023-07-02T17:14:51;10.95;;;6.13;;
80163;SDS011;70071;55.130;61.268;2023-07-02T17:17:21;10.23;;;5.07;;
80163;SDS011;70071;55.130;61.268;2023-07-02T17:19:53;12.15;;;5.70;;
80163;SDS011;70071;55.130;61.268;2023-07-02T17:22:30;13.15;;;6.03;;
80163;SDS011;70071;55.130;61.268;2023-07-02T17:24:57;12.63;;;6.03;;
80163;SDS011;70071;55.130;61.268;2023-07-02T17:27:26;14.57;;;6.28;;
80163;SDS011;70071;55.130;61.268;2023-07-02T17:29:56;11.73;;;5.35;;
80163;SDS011;70071;55.130;61.268;2023-07-02T17:32:32;17.27;;;6.43;;
80163;SDS011;70071;55.130;61.268;2023-07-02T17:34:59;11.05;;;5.82;;
80163;SDS011;70071;55.130;61.268;2023-07-02T17:37:25;16.20;;;5.20;;
80163;SDS011;70071;55.130;61.268;2023-07-02T17:42:17;14.45;;;4.68;;
80163;SDS011;70071;55.130;61.268;2023-07-02T17:44:44;11.13;;;3.78;;
80163;SDS011;70071;55.130;61.268;2023-07-02T17:47:13;8.27;;;4.45;;
80163;SDS011;70071;55.130;61.268;2023-07-02T17:49:42;11.50;;;3.95;;
80163;SDS011;70071;55.130;61.268;2023-07-02T17:52:12;8.52;;;4.07;;
80163;SDS011;70071;55.130;61.268;2023-07-02T17:54:50;11.73;;;4.25;;
80163;SDS011;70071;55.130;61.268;2023-07-02T17:57:19;11.45;;;5.13;;
80163;SDS011;70071;55.130;61.268;2023-07-02T17:59:46;13.98;;;6.40;;
80163;SDS011;70071;55.130;61.268;2023-07-02T18:02:16;17.23;;;6.15;;
80163;SDS011;70071;55.130;61.268;2023-07-02T18:04:43;11.57;;;6.25;;
80163;SDS011;70071;55.130;61.268;2023-07-02T18:07:11;16.48;;;6.45;;
80163;SDS011;70071;55.130;61.268;2023-07-02T18:09:40;10.82;;;5.63;;
80163;SDS011;70071;55.130;61.268;2023-07-02T18:12:09;13.15;;;6.72;;
80163;SDS011;70071;55.130;61.268;2023-07-02T18:14:38;11.75;;;6.10;;
80163;SDS011;70071;55.130;61.268;2023-07-02T18:17:07;12.88;;;6.47;;
80163;SDS011;70071;55.130;61.268;2023-07-02T18:19:33;14.63;;;7.20;;
80163;SDS011;70071;55.130;61.268;2023-07-02T18:22:00;11.88;;;6.50;;
80163;SDS011;70071;55.130;61.268;2023-07-02T18:24:29;10.45;;;5.70;;
80163;SDS011;70071;55.130;61.268;2023-07-02T18:26:56;11.40;;;5.72;;
80163;SDS011;70071;55.130;61.268;2023-07-02T18:29:24;10.70;;;6.28;;
80163;SDS011;70071;55.130;61.268;2023-07-02T18:31:50;12.98;;;6.03;;
80163;SDS011;70071;55.130;61.268;2023-07-02T18:36:42;10.60;;;6.05;;
80163;SDS011;70071;55.130;61.268;2023-07-02T18:39:17;12.18;;;5.95;;
80163;SDS011;70071;55.130;61.268;2023-07-02T18:41:44;11.57;;;6.20;;
80163;SDS011;70071;55.130;61.268;2023-07-02T18:44:13;9.68;;;5.93;;
80163;SDS011;70071;55.130;61.268;2023-07-02T18:49:05;16.88;;;7.28;;
80163;SDS011;70071;55.130;61.268;2023-07-02T18:51:32;11.02;;;6.35;;
80163;SDS011;70071;55.130;61.268;2023-07-02T18:53:59;10.98;;;6.18;;
80163;SDS011;70071;55.130;61.268;2023-07-02T18:56:27;15.98;;;6.35;;
80163;SDS011;70071;55.130;61.268;2023-07-02T18:58:54;10.27;;;5.68;;
80163;SDS011;70071;55.130;61.268;2023-07-02T19:03:45;12.95;;;6.28;;
80163;SDS011;70071;55.130;61.268;2023-07-02T19:06:13;12.13;;;6.30;;
80163;SDS011;70071;55.130;61.268;2023-07-02T19:08:40;11.48;;;5.78;;
80163;SDS011;70071;55.130;61.268;2023-07-02T19:11:06;11.10;;;4.85;;
80163;SDS011;70071;55.130;61.268;2023-07-02T19:13:34;12.05;;;6.25;;
80163;SDS011;70071;55.130;61.268;2023-07-02T19:16:01;13.13;;;5.90;;
80163;SDS011;70071;55.130;61.268;2023-07-02T19:18:27;10.07;;;4.47;;
80163;SDS011;70071;55.130;61.268;2023-07-02T19:20:56;10.13;;;5.10;;
80163;SDS011;70071;55.130;61.268;2023-07-02T19:23:26;11.60;;;4.88;;
80163;SDS011;70071;55.130;61.268;2023-07-02T19:25:56;11.00;;;4.32;;
80163;SDS011;70071;55.130;61.268;2023-07-02T19:28:22;9.38;;;4.00;;
80163;SDS011;70071;55.130;61.268;2023-07-02T19:30:49;9.80;;;4.70;;
80163;SDS011;70071;55.130;61.268;2023-07-02T19:35:48;6.72;;;3.70;;
80163;SDS011;70071;55.130;61.268;2023-07-02T19:38:15;11.25;;;4.32;;
80163;SDS011;70071;55.130;61.268;2023-07-02T19:40:41;7.45;;;4.18;;
80163;SDS011;70071;55.130;61.268;2023-07-02T19:43:17;13.07;;;4.20;;
80163;SDS011;70071;55.130;61.268;2023-07-02T19:48:08;8.88;;;3.58;;
80163;SDS011;70071;55.130;61.268;2023-07-02T19:50:34;7.65;;;3.42;;
80163;SDS011;70071;55.130;61.268;2023-07-02T19:53:00;9.85;;;3.35;;
80163;SDS011;70071;55.130;61.268;2023-07-02T19:55:26;11.90;;;4.72;;
80163;SDS011;70071;55.130;61.268;2023-07-02T19:57:52;12.55;;;3.88;;
80163;SDS011;70071;55.130;61.268;2023-07-02T20:00:18;10.25;;;4.20;;
80163;SDS011;70071;55.130;61.268;2023-07-02T20:02:44;12.10;;;4.00;;
80163;SDS011;70071;55.130;61.268;2023-07-02T20:05:12;8.98;;;4.30;;
80163;SDS011;70071;55.130;61.268;2023-07-02T20:10:04;10.05;;;4.18;;
80163;SDS011;70071;55.130;61.268;2023-07-02T20:12:31;9.07;;;3.85;;
80163;SDS011;70071;55.130;61.268;2023-07-02T20:14:58;8.70;;;3.90;;
80163;SDS011;70071;55.130;61.268;2023-07-02T20:17:26;9.20;;;3.65;;
80163;SDS011;70071;55.130;61.268;2023-07-02T20:19:55;8.52;;;3.72;;
80163;SDS011;70071;55.130;61.268;2023-07-02T20:22:22;12.60;;;4.55;;
80163;SDS011;70071;55.130;61.268;2023-07-02T20:24:49;13.35;;;5.00;;
80163;SDS011;70071;55.130;61.268;2023-07-02T20:27:16;8.15;;;4.00;;
80163;SDS011;70071;55.130;61.268;2023-07-02T20:29:47;8.75;;;4.25;;
80163;SDS011;70071;55.130;61.268;2023-07-02T20:32:16;9.57;;;4.03;;
80163;SDS011;70071;55.130;61.268;2023-07-02T20:34:47;8.55;;;3.92;;
80163;SDS011;70071;55.130;61.268;2023-07-02T20:37:14;6.30;;;3.50;;
80163;SDS011;70071;55.130;61.268;2023-07-02T20:39:44;7.65;;;3.75;;
80163;SDS011;70071;55.130;61.268;2023-07-02T20:42:13;8.38;;;3.50;;
80163;SDS011;70071;55.130;61.268;2023-07-02T20:44:44;8.43;;;2.30;;
80163;SDS011;70071;55.130;61.268;2023-07-02T20:47:16;8.63;;;2.75;;
80163;SDS011;70071;55.130;61.268;2023-07-02T20:49:44;10.63;;;3.60;;
80163;SDS011;70071;55.130;61.268;2023-07-02T20:52:15;10.35;;;3.22;;
80163;SDS011;70071;55.130;61.268;2023-07-02T20:54:42;8.48;;;2.95;;
80163;SDS011;70071;55.130;61.268;2023-07-02T20:57:11;5.93;;;2.75;;
80163;SDS011;70071;55.130;61.268;2023-07-02T20:59:40;9.57;;;3.40;;
80163;SDS011;70071;55.130;61.268;2023-07-02T21:02:06;7.25;;;3.03;;
80163;SDS011;70071;55.130;61.268;2023-07-02T21:04:36;7.22;;;3.30;;
80163;SDS011;70071;55.130;61.268;2023-07-02T21:07:02;10.88;;;3.50;;
80163;SDS011;70071;55.130;61.268;2023-07-02T21:09:29;8.65;;;3.67;;
80163;SDS011;70071;55.130;61.268;2023-07-02T21:11:55;8.23;;;3.20;;
80163;SDS011;70071;55.130;61.268;2023-07-02T21:14:21;7.57;;;2.90;;
80163;SDS011;70071;55.130;61.268;2023-07-02T21:16:48;10.65;;;3.28;;
80163;SDS011;70071;55.130;61.268;2023-07-02T21:19:15;10.98;;;3.40;;
80163;SDS011;70071;55.130;61.268;2023-07-02T21:21:41;11.15;;;4.22;;
80163;SDS011;70071;55.130;61.268;2023-07-02T21:24:11;7.80;;;3.17;;
80163;SDS011;70071;55.130;61.268;2023-07-02T21:26:38;8.77;;;3.58;;
80163;SDS011;70071;55.130;61.268;2023-07-02T21:29:04;6.80;;;3.53;;
80163;SDS011;70071;55.130;61.268;2023-07-02T21:31:30;11.15;;;3.70;;
80163;SDS011;70071;55.130;61.268;2023-07-02T21:33:57;6.05;;;3.55;;
80163;SDS011;70071;55.130;61.268;2023-07-02T21:36:22;9.80;;;3.67;;
80163;SDS011;70071;55.130;61.268;2023-07-02T21:38:48;10.43;;;3.75;;
80163;SDS011;70071;55.130;61.268;2023-07-02T21:41:14;9.18;;;3.38;;
80163;SDS011;70071;55.130;61.268;2023-07-02T21:43:41;8.73;;;3.85;;
80163;SDS011;70071;55.130;61.268;2023-07-02T21:46:09;8.38;;;3.60;;
80163;SDS011;70071;55.130;61.268;2023-07-02T21:48:38;9.13;;;3.35;;
80163;SDS011;70071;55.130;61.268;2023-07-02T21:51:04;8.88;;;3.35;;
80163;SDS011;70071;55.130;61.268;2023-07-02T21:53:30;8.77;;;3.17;;
80163;SDS011;70071;55.130;61.268;2023-07-02T21:55:56;8.55;;;3.60;;
80163;SDS011;70071;55.130;61.268;2023-07-02T22:00:50;9.80;;;3.85;;
80163;SDS011;70071;55.130;61.268;2023-07-02T22:03:17;6.50;;;3.10;;
80163;SDS011;70071;55.130;61.268;2023-07-02T22:05:43;9.95;;;3.58;;
80163;SDS011;70071;55.130;61.268;2023-07-02T22:08:09;7.38;;;4.30;;
80163;SDS011;70071;55.130;61.268;2023-07-02T22:10:35;8.73;;;3.55;;
80163;SDS011;70071;55.130;61.268;2023-07-02T22:13:03;9.60;;;3.33;;
80163;SDS011;70071;55.130;61.268;2023-07-02T22:15:30;9.00;;;4.07;;
80163;SDS011;70071;55.130;61.268;2023-07-02T22:17:56;11.07;;;3.33;;
80163;SDS011;70071;55.130;61.268;2023-07-02T22:20:28;11.07;;;3.58;;
80163;SDS011;70071;55.130;61.268;2023-07-02T22:22:58;7.38;;;3.25;;
80163;SDS011;70071;55.130;61.268;2023-07-02T22:25:24;6.07;;;3.42;;
80163;SDS011;70071;55.130;61.268;2023-07-02T22:27:51;7.75;;;3.80;;
80163;SDS011;70071;55.130;61.268;2023-07-02T22:30:16;7.10;;;2.97;;
80163;SDS011;70071;55.130;61.268;2023-07-02T22:32:42;9.60;;;3.50;;
80163;SDS011;70071;55.130;61.268;2023-07-02T22:37:35;7.97;;;3.05;;
80163;SDS011;70071;55.130;61.268;2023-07-02T22:40:05;7.70;;;2.97;;
80163;SDS011;70071;55.130;61.268;2023-07-02T22:42:37;7.03;;;3.28;;
80163;SDS011;70071;55.130;61.268;2023-07-02T22:45:05;6.45;;;3.50;;
80163;SDS011;70071;55.130;61.268;2023-07-02T22:47:33;8.52;;;3.63;;
80163;SDS011;70071;55.130;61.268;2023-07-02T22:49:59;10.15;;;3.65;;
80163;SDS011;70071;55.130;61.268;2023-07-02T22:52:25;8.98;;;3.13;;
80163;SDS011;70071;55.130;61.268;2023-07-02T22:54:51;12.73;;;5.28;;
80163;SDS011;70071;55.130;61.268;2023-07-02T22:57:18;7.97;;;3.90;;
80163;SDS011;70071;55.130;61.268;2023-07-02T22:59:45;8.25;;;3.55;;
80163;SDS011;70071;55.130;61.268;2023-07-02T23:04:46;6.90;;;3.70;;
80163;SDS011;70071;55.130;61.268;2023-07-02T23:07:12;8.50;;;3.45;;
80163;SDS011;70071;55.130;61.268;2023-07-02T23:09:38;8.00;;;3.38;;
80163;SDS011;70071;55.130;61.268;2023-07-02T23:12:04;9.20;;;3.75;;
80163;SDS011;70071;55.130;61.268;2023-07-02T23:14:31;9.18;;;3.78;;
80163;SDS011;70071;55.130;61.268;2023-07-02T23:16:56;8.02;;;3.50;;
80163;SDS011;70071;55.130;61.268;2023-07-02T23:19:22;8.75;;;3.83;;
80163;SDS011;70071;55.130;61.268;2023-07-02T23:21:55;7.30;;;3.58;;
80163;SDS011;70071;55.130;61.268;2023-07-02T23:24:21;5.55;;;2.50;;
80163;SDS011;70071;55.130;61.268;2023-07-02T23:26:48;8.57;;;3.38;;
80163;SDS011;70071;55.130;61.268;2023-07-02T23:31:46;7.32;;;2.60;;
80163;SDS011;70071;55.130;61.268;2023-07-02T23:34:13;6.85;;;3.00;;
80163;SDS011;70071;55.130;61.268;2023-07-02T23:36:40;4.30;;;2.58;;
80163;SDS011;70071;55.130;61.268;2023-07-02T23:39:14;4.80;;;2.40;;
80163;SDS011;70071;55.130;61.268;2023-07-02T23:41:41;9.20;;;2.95;;
80163;SDS011;70071;55.130;61.268;2023-07-02T23:44:08;8.85;;;2.72;;
80163;SDS011;70071;55.130;61.268;2023-07-02T23:46:36;8.30;;;3.40;;
80163;SDS011;70071;55.130;61.268;2023-07-02T23:49:03;7.38;;;2.85;;
80163;SDS011;70071;55.130;61.268;2023-07-02T23:51:30;12.05;;;3.42;;
80163;SDS011;70071;55.130;61.268;2023-07-02T23:53:56;9.20;;;2.95;;
80163;SDS011;70071;55.130;61.268;2023-07-02T23:56:22;8.27;;;2.60;;
80163;SDS011;70071;55.130;61.268;2023-07-02T23:58:49;10.95;;;3.20;;
